Ana Sayfa
METAR-TAF:

METAR-TAF

Havaalanları :

Hakkâri Yüksekova Selahaddin Eyyubi Havalimanı

Yüksekova, Türkiye

Enlem: 37-33-06N, Boylam: 44-14-01E, yükseklik: 1950 m

Güncel hava durumu gözlemi

Rapor saat 12:50 UTC de 9 saat ve 2 dakika önce yapıldı.
Rüzgar doğu/kuzeydoğudan 14 kt, kuzeydoğu ve doğu arasında değişken
Sıcaklık 8°C
Nem 27%
Basınç 1024 hPa
Görüş mesafesi 10 km veya daha fazla
1500 m altında bulut yok ve kümülonimbus yok

METAR: LTCW 161250Z 07014KT 040V100 CAVOK 08/M10 Q1024

Saat: 00:52 (21:52 UTC)

Tahmin

Rapor saat 19:40 UTC de 2 saat ve 12 dakika önce yapıldı.
Ayın 16'si saat 21 UTC'den ayın 17'si saat 06 UTC'ye kadar geçerli Tahmin
Rüzgar batı/güneybatıdan 6 kt
Görüş mesafesi 10 km veya daha fazla
1500 m altında bulut yok ve kümülonimbus yok

TAF: LTCW 161940Z 1621/1706 25006KT CAVOK

4.000'den fazla havaalanı için hava durumu gözlemleri ve tahminleri (METAR ve TAF raporları).

Kullanılabilir istasyonlar harita üzerinde sarı ve kırmızı noktalarla gösterilir.

İstasyonun adını görmek için fareyi noktanın üzerinde gezdirin.

Sonrasında hava gözlem ve tahminlerini görmek için tıklayın.

Haritayı değiştirmek için: yaklaştırmak için siyah artı işaretli yeşil düğmeye ve uzaklaştırmak için de eksi işaretli düğmeye hızla tıklayın; bitişik haritalar için yeşil okları kullanın.


METAR-TAF: